Time;durP1;ratioP1;P1;durP2;ratioP2;P2;SDS_P1;SDS_P2;PMS_P1;PMS_P2;Temp;Humidity;BMP_temperature;BMP_pressure;BME280_temperature;BME280_humidity;BME280_pressure;Samples;Min_cycle;Max_cycle;Signal;HPM_P1;HPM_P2
2022/11/02 00:04:02;;;;;;;0.90;0.45;;;;;;;11.64;73.14;101256.78;10169260;29;20255;-85
2022/11/02 00:09:03;;;;;;;2.67;0.50;;;;;;;11.66;73.25;101248.09;10170429;29;20511;-85
2022/11/02 00:14:05;;;;;;;1.80;0.50;;;;;;;11.72;73.22;101225.47;10169822;29;20040;-85
2022/11/02 00:19:08;;;;;;;1.35;0.68;;;;;;;11.72;73.36;101230.72;10171851;29;20043;-85
2022/11/02 00:24:10;;;;;;;1.88;0.40;;;;;;;11.68;73.16;101228.03;10168852;29;20107;-85
2022/11/02 00:29:12;;;;;;;2.72;0.50;;;;;;;11.81;73.24;101237.03;10170149;29;20032;-85
2022/11/02 00:34:13;;;;;;;1.23;0.40;;;;;;;11.85;73.18;101232.72;10169427;29;20036;-85
2022/11/02 00:39:15;;;;;;;2.55;0.50;;;;;;;11.90;73.07;101220.56;10165714;29;20590;-85
2022/11/02 00:44:16;;;;;;;1.63;0.50;;;;;;;11.91;72.98;101229.34;10168427;29;20040;-85
2022/11/02 00:49:17;;;;;;;1.00;0.40;;;;;;;11.91;73.28;101219.72;10168097;29;20545;-85
2022/11/02 00:54:19;;;;;;;3.25;1.08;;;;;;;11.70;74.34;101214.06;10158967;29;20096;-86
2022/11/02 00:59:28;;;;;;;3.70;0.50;;;;;;;11.48;76.09;101204.03;10159213;29;20530;-85
2022/11/02 01:04:30;;;;;;;1.67;0.60;;;;;;;11.22;77.18;101197.38;10161736;29;20131;-84
2022/11/02 01:09:33;;;;;;;5.32;1.58;;;;;;;11.04;78.31;101203.97;10164037;29;20286;-85
2022/11/02 01:14:35;;;;;;;4.05;0.30;;;;;;;10.97;78.89;101191.59;10164196;29;20092;-84
2022/11/02 01:19:36;;;;;;;2.40;0.35;;;;;;;10.89;79.56;101190.53;10168122;29;20399;-85
2022/11/02 01:24:38;;;;;;;3.40;0.20;;;;;;;10.89;80.14;101190.53;10167138;29;20051;-85
2022/11/02 01:29:39;;;;;;;2.17;0.30;;;;;;;10.95;80.62;101178.44;10169887;29;20064;-85
2022/11/02 01:34:41;;;;;;;4.30;1.02;;;;;;;11.01;80.34;101172.47;10174269;29;20772;-85
2022/11/02 01:39:42;;;;;;;1.40;0.63;;;;;;;11.07;80.28;101162.13;10174497;29;20051;-85
2022/11/02 01:44:44;;;;;;;0.93;0.47;;;;;;;11.16;80.12;101157.94;10174237;29;20131;-85
2022/11/02 01:49:49;;;;;;;0.80;0.47;;;;;;;11.14;80.22;101161.41;10175542;29;20754;-84
2022/11/02 01:54:57;;;;;;;3.40;0.95;;;;;;;11.25;80.09;101147.63;10165400;29;20045;-85
2022/11/02 02:00:04;;;;;;;2.30;0.60;;;;;;;11.18;80.02;101143.97;10166213;29;20570;-85
2022/11/02 02:05:16;;;;;;;2.53;0.77;;;;;;;11.14;79.96;101144.78;10172781;29;20125;-86
2022/11/02 02:10:18;;;;;;;2.65;0.60;;;;;;;11.19;79.84;101142.25;10186958;29;20059;-85
2022/11/02 02:15:26;;;;;;;1.80;0.73;;;;;;;11.16;79.69;101137.84;10172387;29;20044;-85
2022/11/02 02:20:40;;;;;;;0.10;0.10;;;;;;;11.14;79.78;101124.69;10176708;29;20056;-85
2022/11/02 02:25:59;;;;;;;5.07;0.43;;;;;;;11.10;79.72;101127.22;10173761;29;20127;-85
2022/11/02 02:31:38;;;;;;;1.38;0.22;;;;;;;11.15;79.82;101122.94;10171738;29;20040;-85
2022/11/02 02:36:46;;;;;;;3.65;0.47;;;;;;;11.28;79.49;101118.84;10167951;29;20056;-85
2022/11/02 02:42:04;;;;;;;0.75;0.30;;;;;;;11.32;79.50;101121.56;10170890;29;20096;-85
2022/11/02 02:47:18;;;;;;;0.38;0.28;;;;;;;11.44;79.18;101128.78;10165984;29;20055;-85
2022/11/02 02:52:22;;;;;;;1.45;0.38;;;;;;;11.45;78.93;101120.06;10172036;29;20083;-85
2022/11/02 02:57:29;;;;;;;2.45;0.57;;;;;;;11.45;78.88;101119.16;10166395;29;20044;-86
2022/11/02 03:02:33;;;;;;;1.00;0.20;;;;;;;11.61;78.77;101113.34;10165717;29;20497;-86
2022/11/02 03:07:34;;;;;;;1.50;0.35;;;;;;;11.65;78.39;101128.28;10166944;29;20048;-86
2022/11/02 03:13:09;;;;;;;1.90;0.73;;;;;;;11.79;78.21;101131.16;10166756;29;20502;-86
2022/11/02 03:18:24;;;;;;;0.38;0.30;;;;;;;11.81;77.88;101116.34;10179912;29;20095;-86
2022/11/02 03:23:34;;;;;;;1.40;0.40;;;;;;;11.80;77.62;101117.19;10165020;29;20044;-86
2022/11/02 03:29:09;;;;;;;4.18;0.80;;;;;;;11.74;77.60;101116.19;10161724;29;20119;-86
2022/11/02 03:34:40;;;;;;;0.75;0.35;;;;;;;11.70;77.41;101131.00;10163486;29;20417;-86
2022/11/02 03:39:49;;;;;;;2.95;0.38;;;;;;;11.70;77.04;101132.75;10163535;29;20091;-86
2022/11/02 03:44:57;;;;;;;0.70;0.20;;;;;;;11.63;76.95;101144.84;10170630;29;20112;-86
2022/11/02 03:50:01;;;;;;;0.90;0.38;;;;;;;11.55;77.39;101136.84;10162825;29;20065;-86
2022/11/02 03:55:11;;;;;;;0.73;0.38;;;;;;;11.43;77.69;101139.25;10162252;29;20753;-86
2022/11/02 04:00:16;;;;;;;0.77;0.50;;;;;;;11.34;78.21;101147.81;10157028;29;20111;-86
2022/11/02 04:05:31;;;;;;;2.92;0.80;;;;;;;11.20;79.02;101163.25;10159232;29;20525;-86
2022/11/02 04:14:36;;;;;;;0.30;0.30;;;;;;;11.18;79.82;101166.69;10144326;29;20049;-86
2022/11/02 04:15:59;;;;;;;0.38;0.32;;;;;;;11.10;80.32;101162.19;10177198;29;20059;-86
2022/11/02 04:21:01;;;;;;;1.92;0.98;;;;;;;11.09;80.46;101181.41;10161526;29;20072;-86
2022/11/02 04:26:03;;;;;;;1.65;0.50;;;;;;;10.99;80.40;101171.56;10177029;29;20051;-86
2022/11/02 04:31:13;;;;;;;1.00;0.55;;;;;;;10.89;80.35;101164.34;10176331;29;20040;-86
2022/11/02 04:36:15;;;;;;;0.28;0.28;;;;;;;10.76;80.24;101173.66;10156023;29;20056;-85
2022/11/02 04:46:50;;;;;;;0.22;0.22;;;;;;;10.52;80.27;101173.97;10160272;29;20044;-86
2022/11/02 04:51:52;;;;;;;0.10;0.10;;;;;;;10.40;80.09;101175.47;10160692;29;20107;-87
2022/11/02 04:56:54;;;;;;;0.20;0.20;;;;;;;10.36;79.97;101172.75;10176293;29;20569;-86
2022/11/02 05:01:58;;;;;;;0.30;0.30;;;;;;;10.30;79.94;101186.53;10160701;29;20071;-86
2022/11/02 05:07:00;;;;;;;0.88;0.40;;;;;;;10.21;80.22;101189.81;10153043;29;20052;-84
2022/11/02 05:12:07;;;;;;;1.25;0.50;;;;;;;10.13;80.07;101186.09;10177776;29;20055;-86
2022/11/02 05:17:08;;;;;;;0.50;0.17;;;;;;;10.05;80.35;101196.38;10162168;29;20051;-86
2022/11/02 05:22:12;;;;;;;0.40;0.20;;;;;;;9.95;80.80;101196.09;10167886;29;20107;-86
2022/11/02 05:27:13;;;;;;;2.13;0.60;;;;;;;9.89;81.21;101209.88;10167680;29;20530;-86
2022/11/02 05:32:18;;;;;;;1.75;0.22;;;;;;;9.86;81.67;101213.34;10183288;29;20048;-86
2022/11/02 05:37:20;;;;;;;0.93;0.40;;;;;;;9.81;82.00;101211.44;10167791;29;20139;-86
2022/11/02 05:42:22;;;;;;;2.28;0.63;;;;;;;9.76;82.73;101221.78;10170197;29;20072;-86
2022/11/02 05:47:24;;;;;;;0.90;0.52;;;;;;;9.80;83.00;101218.38;10167817;29;20056;-86
2022/11/02 05:52:25;;;;;;;0.20;0.20;;;;;;;9.72;83.23;101217.28;10168463;29;20099;-87
2022/11/02 05:57:27;;;;;;;0.10;0.10;;;;;;;9.69;83.54;101212.84;10168031;29;20052;-87
2022/11/02 06:02:29;;;;;;;1.38;0.63;;;;;;;9.75;83.79;101219.13;10161938;29;20467;-86
2022/11/02 06:07:30;;;;;;;1.40;0.50;;;;;;;9.86;83.89;101212.44;10182932;29;20051;-85
2022/11/02 06:12:32;;;;;;;1.10;0.75;;;;;;;9.82;83.94;101218.44;10168797;29;20078;-85
2022/11/02 06:17:38;;;;;;;0.35;0.30;;;;;;;9.89;84.10;101222.97;10165828;29;20812;-86
2022/11/02 06:22:40;;;;;;;0.43;0.20;;;;;;;10.05;83.90;101219.91;10176822;29;20044;-88
2022/11/02 06:27:53;;;;;;;4.72;0.73;;;;;;;10.16;83.71;101222.81;10167795;29;20043;-88
2022/11/02 06:32:55;;;;;;;0.45;0.25;;;;;;;10.32;83.65;101218.84;10181024;29;20040;-87
2022/11/02 06:37:57;;;;;;;1.10;0.88;;;;;;;10.41;83.21;101228.72;10181806;29;20052;-88
2022/11/02 06:42:58;;;;;;;7.22;0.73;;;;;;;10.36;82.56;101220.75;10166215;29;20052;-89
2022/11/02 06:48:18;;;;;;;2.27;0.30;;;;;;;10.36;82.67;101219.88;10181909;29;20048;-89
2022/11/02 06:53:19;;;;;;;2.65;0.88;;;;;;;10.38;82.63;101228.63;10181384;29;20483;-90
2022/11/02 06:58:24;;;;;;;0.55;0.40;;;;;;;10.44;82.49;101250.59;10182172;29;20048;-90
2022/11/02 07:03:27;;;;;;;2.10;0.50;;;;;;;10.59;82.26;101241.38;10160570;29;20694;-90
2022/11/02 07:08:28;;;;;;;6.22;0.57;;;;;;;10.76;81.89;101261.00;10166933;29;20036;-89
2022/11/02 07:13:30;;;;;;;3.58;0.77;;;;;;;10.83;81.35;101264.63;10166025;29;20462;-91
2022/11/02 07:18:31;;;;;;;1.48;0.57;;;;;;;10.98;80.99;101271.97;10166748;29;20044;-89
2022/11/02 07:23:33;;;;;;;1.23;0.47;;;;;;;11.28;80.57;101281.38;10168517;29;20640;-89
2022/11/02 07:28:36;;;;;;;0.30;0.30;;;;;;;11.95;79.62;101287.19;10164590;29;20038;-87
2022/11/02 07:33:38;;;;;;;1.00;0.20;;;;;;;11.73;78.77;101293.69;10163175;29;20502;-86
2022/11/02 07:38:41;;;;;;;1.30;0.25;;;;;;;11.98;78.00;101307.31;10163446;29;20546;-86
2022/11/02 07:43:42;;;;;;;0.63;0.40;;;;;;;11.49;78.04;101315.94;10160184;29;20033;-87
2022/11/02 07:49:06;;;;;;;1.60;0.25;;;;;;;11.82;78.38;101311.38;10165999;29;20055;-86
2022/11/02 07:54:08;;;;;;;4.22;0.90;;;;;;;12.33;76.51;101326.38;10178772;29;20498;-85
2022/11/02 07:59:10;;;;;;;0.20;0.20;;;;;;;11.67;77.09;101340.78;10179467;29;20132;-86
2022/11/02 08:04:12;;;;;;;0.43;0.28;;;;;;;13.73;76.15;101353.16;10156439;29;20462;-86
2022/11/02 08:09:14;;;;;;;0.10;0.10;;;;;;;12.71;74.24;101359.47;10164206;29;20131;-85
2022/11/02 08:14:16;;;;;;;2.58;0.77;;;;;;;11.73;75.45;101355.78;10161396;29;20509;-84
2022/11/02 08:19:17;;;;;;;2.63;0.85;;;;;;;11.56;76.80;101353.69;10163105;29;20502;-85
2022/11/02 08:24:18;;;;;;;4.97;0.82;;;;;;;11.95;77.18;101351.88;10177656;29;20044;-85
2022/11/02 08:29:20;;;;;;;1.50;0.50;;;;;;;12.03;76.92;101345.94;10162669;29;20052;-84
2022/11/02 08:34:22;;;;;;;1.35;0.80;;;;;;;11.96;76.72;101364.16;10161487;29;20045;-85
2022/11/02 08:39:23;;;;;;;1.40;0.40;;;;;;;11.79;76.66;101372.53;10162053;29;20417;-87
2022/11/02 08:44:25;;;;;;;4.53;1.13;;;;;;;11.77;77.30;101384.75;10160964;29;20409;-86
2022/11/02 08:49:26;;;;;;;2.72;0.82;;;;;;;11.69;77.36;101394.16;10161185;29;20682;-87
2022/11/02 08:54:28;;;;;;;1.80;0.35;;;;;;;11.62;77.46;101394.88;10155233;29;20051;-86
2022/11/02 08:59:30;;;;;;;2.22;0.50;;;;;;;11.59;77.76;101405.31;10180150;29;20064;-85
2022/11/02 09:04:31;;;;;;;3.40;0.30;;;;;;;11.52;78.22;101420.03;10160002;29;20048;-86
2022/11/02 09:09:33;;;;;;;2.30;0.60;;;;;;;11.52;78.44;101429.63;10160674;29;20063;-86
2022/11/02 09:14:34;;;;;;;6.13;0.45;;;;;;;11.55;78.07;101442.81;10154581;29;20498;-86
2022/11/02 09:19:36;;;;;;;4.90;0.88;;;;;;;11.36;78.14;101444.09;10176114;29;20099;-86
2022/11/02 09:24:37;;;;;;;0.13;0.13;;;;;;;11.27;78.79;101450.91;10161612;29;20419;-86
2022/11/02 09:29:39;;;;;;;0.70;0.28;;;;;;;11.38;79.39;101452.88;10161413;29;20607;-86
2022/11/02 09:34:40;;;;;;;1.77;0.32;;;;;;;11.70;79.69;101469.41;10159776;29;20044;-85
2022/11/02 09:39:42;;;;;;;0.57;0.22;;;;;;;12.22;78.52;101463.56;10156061;29;20036;-85
2022/11/02 09:44:55;;;;;;;1.65;0.52;;;;;;;12.49;78.16;101477.28;10159788;29;20052;-85
2022/11/02 09:50:01;;;;;;;2.15;0.75;;;;;;;12.86;77.26;101458.72;10179828;29;20560;-85
2022/11/02 09:55:11;;;;;;;3.88;1.02;;;;;;;13.05;76.49;101473.94;10163614;29;20184;-84
2022/11/02 10:00:14;;;;;;;0.75;0.30;;;;;;;13.39;75.36;101489.47;10168071;29;20529;-86
2022/11/02 10:05:34;;;;;;;1.35;0.32;;;;;;;13.49;74.81;101496.66;10168606;29;20100;-86
2022/11/02 10:10:37;;;;;;;;;;;;;;;13.31;73.97;101514.72;10164371;29;20044;-85
2022/11/02 10:15:51;;;;;;;1.05;0.38;;;;;;;13.16;73.98;101512.72;10168849;29;19923;-84
2022/11/02 10:20:55;;;;;;;0.20;0.13;;;;;;;13.24;73.66;101532.13;10168590;29;20044;-85
2022/11/02 10:25:59;;;;;;;1.95;0.63;;;;;;;12.89;72.82;101525.34;10165711;29;20123;-86
2022/11/02 10:31:02;;;;;;;0.13;0.13;;;;;;;12.64;72.82;101533.59;10183777;29;20059;-86
2022/11/02 10:36:17;;;;;;;0.20;0.20;;;;;;;12.57;72.58;101542.25;10168959;29;20068;-84
2022/11/02 10:41:34;;;;;;;0.10;0.10;;;;;;;12.94;72.64;101557.00;10160975;29;20044;-84
2022/11/02 10:47:15;;;;;;;0.68;0.28;;;;;;;12.84;72.12;101568.19;10166333;29;20600;-85
2022/11/02 10:52:17;;;;;;;1.17;0.57;;;;;;;13.01;71.92;101572.03;10165909;29;20676;-85
2022/11/02 10:57:22;;;;;;;2.28;0.65;;;;;;;13.23;71.34;101589.09;10166875;29;20111;-85
2022/11/02 11:02:24;;;;;;;0.30;0.30;;;;;;;13.11;70.79;101586.25;10166202;29;20334;-84
2022/11/02 11:07:26;;;;;;;0.52;0.17;;;;;;;13.82;70.32;101584.91;10163017;29;20059;-84
2022/11/02 11:12:36;;;;;;;4.15;0.88;;;;;;;14.12;68.69;101605.56;10155855;29;20055;-84
2022/11/02 11:17:39;;;;;;;0.45;0.30;;;;;;;14.29;67.63;101618.09;10183548;29;20048;-84
2022/11/02 11:23:23;;;;;;;0.43;0.25;;;;;;;14.13;66.73;101622.28;10184646;29;20052;-84
2022/11/02 11:28:51;;;;;;;0.90;0.20;;;;;;;14.06;66.20;101633.56;10154757;29;20048;-84
2022/11/02 11:33:58;;;;;;;3.30;0.65;;;;;;;14.17;65.54;101637.25;10179349;29;20045;-84
2022/11/02 11:39:24;;;;;;;0.05;0.05;;;;;;;13.66;65.53;101635.50;10171902;29;20048;-86
2022/11/02 11:44:26;;;;;;;3.40;0.70;;;;;;;13.26;66.09;101641.75;10165627;29;20108;-85
2022/11/02 11:49:33;;;;;;;1.35;0.40;;;;;;;13.37;66.81;101643.75;10168704;29;20036;-85
2022/11/02 11:55:00;;;;;;;2.47;0.30;;;;;;;13.31;66.79;101654.13;10153424;29;20048;-85
2022/11/02 12:00:26;;;;;;;5.25;0.40;;;;;;;13.66;68.09;101625.88;10171003;29;20457;-84
2022/11/02 12:05:28;;;;;;;0.50;0.38;;;;;;;13.97;67.32;101642.19;10175158;29;20060;-85
2022/11/02 12:10:51;;;;;;;4.15;0.63;;;;;;;13.88;66.17;101640.28;10171542;29;20067;-84
2022/11/02 12:16:06;;;;;;;1.45;0.30;;;;;;;13.70;64.70;101647.88;10159090;29;20597;-84
2022/11/02 12:21:28;;;;;;;0.10;0.10;;;;;;;13.70;64.49;101647.88;10170803;28;20036;-83
2022/11/02 12:26:45;;;;;;;4.07;0.70;;;;;;;13.71;63.60;101661.06;10187904;29;20046;-83
2022/11/02 12:31:55;;;;;;;0.90;0.35;;;;;;;13.83;63.13;101670.91;10204821;29;20054;-82
2022/11/02 12:37:39;;;;;;;0.77;0.30;;;;;;;13.83;62.58;101681.44;10189831;29;20059;-83
2022/11/02 12:42:51;;;;;;;0.00;0.00;;;;;;;13.97;62.30;101679.06;10168308;29;20130;-84
2022/11/02 12:48:01;;;;;;;2.95;0.40;;;;;;;13.77;62.08;101686.59;10165535;29;20048;-85
2022/11/02 12:53:41;;;;;;;0.77;0.20;;;;;;;13.64;62.05;101676.72;10169379;29;20032;-84
2022/11/02 12:58:43;;;;;;;2.93;0.37;;;;;;;13.68;62.00;101682.06;10163271;29;20055;-85
2022/11/02 13:04:01;;;;;;;0.20;0.20;;;;;;;13.46;61.47;101696.53;10165852;29;20555;-84
2022/11/02 13:09:31;;;;;;;0.25;0.25;;;;;;;13.39;60.91;101690.28;10175342;29;20075;-83
2022/11/02 13:14:39;;;;;;;0.22;0.22;;;;;;;13.43;61.09;101700.00;10186672;29;20074;-84
2022/11/02 13:19:49;;;;;;;1.00;0.30;;;;;;;13.59;61.20;101695.03;10186902;29;20044;-84
2022/11/02 13:24:55;;;;;;;1.15;0.70;;;;;;;13.52;61.37;101696.66;10168950;29;20406;-84
2022/11/02 13:30:01;;;;;;;1.77;0.55;;;;;;;13.37;61.88;101704.25;10173750;29;20059;-84
2022/11/02 13:35:28;;;;;;;1.63;0.38;;;;;;;13.32;62.30;101698.00;10196554;29;20043;-84
2022/11/02 13:40:37;;;;;;;1.58;0.60;;;;;;;13.28;62.79;101712.81;10176515;29;20062;-83
2022/11/02 13:45:53;;;;;;;1.15;0.70;;;;;;;13.25;62.93;101705.72;10191501;29;20051;-84
2022/11/02 13:50:59;;;;;;;1.08;0.22;;;;;;;13.22;62.68;101723.19;10187478;29;20099;-89
2022/11/02 13:56:08;;;;;;;2.00;0.45;;;;;;;13.09;62.96;101732.59;10170358;29;20458;-85
2022/11/02 14:01:14;;;;;;;0.80;0.38;;;;;;;12.94;63.11;101727.88;10170421;29;20048;-84
2022/11/02 14:06:18;;;;;;;2.83;0.20;;;;;;;12.90;63.17;101729.53;10172522;29;20144;-85
2022/11/02 14:11:20;;;;;;;1.65;0.25;;;;;;;12.86;63.37;101721.53;10185169;29;20048;-85
2022/11/02 14:16:49;;;;;;;1.23;0.52;;;;;;;12.84;63.67;101708.38;10167909;29;20062;-86
2022/11/02 14:21:51;;;;;;;8.13;2.65;;;;;;;12.82;63.76;101717.97;10165163;29;20115;-86
2022/11/02 14:26:55;;;;;;;1.10;0.25;;;;;;;12.84;63.87;101715.38;10163825;29;20800;-86
2022/11/02 14:32:02;;;;;;;0.98;0.20;;;;;;;12.76;63.59;101707.31;10168091;29;20040;-87
2022/11/02 14:37:45;;;;;;;1.60;0.40;;;;;;;12.72;63.69;101701.09;10165088;29;20076;-86
2022/11/02 14:42:49;;;;;;;7.22;1.90;;;;;;;12.65;63.86;101708.78;10166915;29;20070;-84
2022/11/02 14:48:01;;;;;;;2.35;0.55;;;;;;;12.57;63.76;101699.88;10168357;29;20522;-85
2022/11/02 14:53:07;;;;;;;4.68;0.85;;;;;;;12.52;63.59;101703.25;10167404;29;20052;-86
2022/11/02 14:58:19;;;;;;;0.77;0.30;;;;;;;12.44;63.70;101715.31;10169630;29;20712;-86
2022/11/02 15:03:23;;;;;;;0.60;0.22;;;;;;;12.33;63.91;101717.69;10184459;29;20054;-86
2022/11/02 15:08:30;;;;;;;1.33;0.60;;;;;;;12.26;64.04;101731.50;10167180;29;20032;-86
2022/11/02 15:13:35;;;;;;;3.08;1.08;;;;;;;12.16;64.70;101735.66;10169824;29;20036;-85
2022/11/02 15:18:38;;;;;;;3.25;1.00;;;;;;;12.05;64.93;101737.09;10176265;29;20054;-87
2022/11/02 15:23:53;;;;;;;1.75;0.40;;;;;;;11.90;65.42;101742.78;10177165;29;20435;-86
2022/11/02 15:28:57;;;;;;;1.50;0.40;;;;;;;11.78;66.04;101737.22;10166942;29;20084;-85
2022/11/02 15:34:04;;;;;;;0.47;0.47;;;;;;;11.66;66.65;101746.53;10171199;29;20040;-86
2022/11/02 15:39:07;;;;;;;1.85;0.70;;;;;;;11.50;67.08;101742.59;10173623;29;20103;-85
2022/11/02 15:44:46;;;;;;;0.45;0.30;;;;;;;11.37;67.70;101750.94;10163254;29;20095;-86
2022/11/02 15:49:56;;;;;;;3.50;0.40;;;;;;;11.21;68.39;101738.22;10161677;29;20040;-86
2022/11/02 15:55:24;;;;;;;3.63;0.65;;;;;;;11.08;68.74;101734.31;10168405;29;20091;-85
2022/11/02 16:00:29;;;;;;;4.55;1.02;;;;;;;10.99;69.25;101723.56;10171065;29;20078;-85
2022/11/02 16:05:42;;;;;;;5.10;0.77;;;;;;;10.86;69.75;101730.19;10169463;29;20076;-84
2022/11/02 16:10:46;;;;;;;0.52;0.32;;;;;;;10.72;70.28;101728.03;10145900;29;20537;-86
2022/11/02 16:15:48;;;;;;;0.90;0.63;;;;;;;10.56;70.87;101737.09;10169110;29;20055;-85
2022/11/02 16:20:51;;;;;;;0.93;0.63;;;;;;;10.44;71.27;101742.84;10177919;29;20056;-85
2022/11/02 16:25:55;;;;;;;6.22;0.63;;;;;;;10.37;71.69;101733.03;10163470;29;20087;-84
2022/11/02 16:30:56;;;;;;;0.80;0.40;;;;;;;10.32;71.90;101736.28;10171854;29;20070;-84
2022/11/02 16:35:59;;;;;;;1.10;0.63;;;;;;;10.23;72.24;101742.09;10181970;29;20083;-85
2022/11/02 16:41:01;;;;;;;12.50;0.73;;;;;;;10.18;72.50;101747.19;10179751;29;20640;-84
2022/11/02 16:46:03;;;;;;;2.47;0.85;;;;;;;10.11;72.90;101736.47;10185213;29;20048;-83
2022/11/02 16:51:11;;;;;;;2.88;0.52;;;;;;;10.03;73.16;101736.19;10183814;29;20048;-85
2022/11/02 16:56:29;;;;;;;0.75;0.40;;;;;;;9.96;73.47;101737.69;10178042;29;20050;-84
2022/11/02 17:01:39;;;;;;;0.30;0.30;;;;;;;9.87;73.74;101740.88;10179697;29;20051;-84
2022/11/02 17:06:42;;;;;;;0.60;0.38;;;;;;;9.84;74.08;101748.63;10172835;29;20803;-84
2022/11/02 17:11:43;;;;;;;1.48;0.73;;;;;;;9.72;74.31;101737.72;10169705;29;20054;-84
2022/11/02 17:17:06;;;;;;;2.55;0.88;;;;;;;9.65;74.62;101730.47;10196974;29;20765;-84
2022/11/02 17:22:28;;;;;;;4.95;0.50;;;;;;;9.54;75.13;101741.44;10170548;29;20054;-85
2022/11/02 17:27:34;;;;;;;0.80;0.32;;;;;;;9.47;75.08;101747.31;10186157;29;20052;-84
2022/11/02 17:32:42;;;;;;;1.00;0.43;;;;;;;9.38;75.53;101742.63;10161598;29;20139;-87
2022/11/02 17:37:44;;;;;;;1.58;1.00;;;;;;;9.39;75.73;101727.81;10163058;29;20040;-85
2022/11/02 17:42:57;;;;;;;2.83;0.82;;;;;;;9.35;75.88;101739.91;10162428;29;20454;-86
2022/11/02 17:48:00;;;;;;;0.30;0.30;;;;;;;9.30;75.73;101744.03;10156608;29;20048;-86
2022/11/02 17:53:04;;;;;;;2.35;0.98;;;;;;;9.31;75.96;101735.38;10156198;29;20048;-85
2022/11/02 17:58:06;;;;;;;0.40;0.30;;;;;;;9.28;75.92;101735.25;10157567;29;20581;-85
2022/11/02 18:03:14;;;;;;;0.20;0.20;;;;;;;9.27;75.76;101727.38;10170286;29;20454;-86
2022/11/02 18:08:15;;;;;;;0.30;0.30;;;;;;;9.27;75.63;101729.97;10186233;29;20058;-85
2022/11/02 18:13:22;;;;;;;1.90;0.90;;;;;;;9.27;75.76;101730.84;10188923;29;20292;-84
2022/11/02 18:18:24;;;;;;;2.92;0.65;;;;;;;9.26;75.72;101722.97;10195111;29;20048;-84
2022/11/02 18:23:25;;;;;;;2.83;0.32;;;;;;;9.31;75.77;101711.84;10173797;29;20498;-86
2022/11/02 18:28:27;;;;;;;0.77;0.38;;;;;;;9.36;75.58;101704.19;10169199;29;20044;-86
2022/11/02 18:33:28;;;;;;;0.20;0.20;;;;;;;9.40;75.20;101707.78;10159246;29;20056;-86
2022/11/02 18:38:30;;;;;;;1.95;0.63;;;;;;;9.44;74.94;101707.94;10165461;29;20052;-86
2022/11/02 18:43:31;;;;;;;3.00;0.52;;;;;;;9.44;75.06;101694.00;10185186;29;20403;-85
2022/11/02 18:48:33;;;;;;;2.75;1.05;;;;;;;9.47;74.82;101689.78;10164902;29;20040;-86
2022/11/02 18:53:35;;;;;;;4.43;1.08;;;;;;;9.49;74.77;101692.47;10169879;29;20057;-86
2022/11/02 18:58:37;;;;;;;2.92;0.52;;;;;;;9.50;74.64;101695.13;10180508;29;20063;-86
2022/11/02 19:03:38;;;;;;;1.17;0.77;;;;;;;9.47;74.65;101694.09;10167307;29;20044;-85
2022/11/02 19:14:00;;;;;;;0.20;0.20;;;;;;;9.48;74.87;101685.44;10162764;29;20056;-85
2022/11/02 19:19:03;;;;;;;5.93;1.23;;;;;;;9.48;74.97;101674.97;10175200;29;20482;-84
2022/11/02 19:24:05;;;;;;;0.32;0.32;;;;;;;9.48;75.36;101669.75;10165587;29;20040;-87
2022/11/02 19:29:07;;;;;;;0.35;0.20;;;;;;;9.46;74.96;101661.84;10166149;29;20063;-85
2022/11/02 19:34:08;;;;;;;1.45;0.50;;;;;;;9.44;75.24;101653.06;10164562;29;20047;-85
2022/11/02 19:39:10;;;;;;;1.33;0.73;;;;;;;9.48;75.22;101641.00;10162801;29;20586;-86
2022/11/02 19:44:12;;;;;;;0.10;0.10;;;;;;;9.46;75.36;101637.44;10169907;29;20044;-85
2022/11/02 19:49:13;;;;;;;1.35;0.45;;;;;;;9.55;75.42;101629.91;10175056;29;20063;-85
2022/11/02 19:54:15;;;;;;;1.73;0.70;;;;;;;9.53;75.54;101631.56;10171511;29;20048;-85
2022/11/02 19:59:16;;;;;;;0.17;0.17;;;;;;;9.56;75.49;101626.44;10182860;29;20044;-86
2022/11/02 20:04:18;;;;;;;1.73;0.70;;;;;;;9.58;75.43;101623.88;10182763;29;20461;-85
2022/11/02 20:09:19;;;;;;;6.13;1.20;;;;;;;9.56;75.57;101616.00;10168527;29;20500;-85
2022/11/02 20:14:21;;;;;;;0.40;0.40;;;;;;;9.56;75.81;101610.75;10181816;29;20040;-86
2022/11/02 20:19:23;;;;;;;0.65;0.30;;;;;;;9.55;75.70;101609.00;10170546;29;20510;-85
2022/11/02 20:24:24;;;;;;;4.70;0.75;;;;;;;9.53;75.78;101614.19;10182459;29;20044;-86
2022/11/02 20:29:26;;;;;;;5.95;1.50;;;;;;;9.47;75.60;101594.75;10169904;29;20056;-85
2022/11/02 20:34:27;;;;;;;1.83;0.45;;;;;;;9.41;75.91;101594.56;10166261;29;20048;-85
2022/11/02 20:39:29;;;;;;;0.90;0.52;;;;;;;9.29;76.13;101590.69;10162123;29;20051;-86
2022/11/02 20:44:30;;;;;;;0.63;0.50;;;;;;;9.25;76.51;101588.81;10164714;29;20059;-85
2022/11/02 20:49:32;;;;;;;6.50;0.98;;;;;;;9.24;76.49;101592.25;10180124;29;20450;-85
2022/11/02 20:54:53;;;;;;;0.57;0.52;;;;;;;9.20;76.52;101585.13;10160243;29;20052;-84
2022/11/02 20:59:55;;;;;;;3.10;1.02;;;;;;;9.13;76.76;101584.03;10164910;29;20510;-84
2022/11/02 21:04:56;;;;;;;2.47;0.82;;;;;;;9.05;77.05;101568.91;10172821;29;20044;-86
2022/11/02 21:09:58;;;;;;;2.20;1.23;;;;;;;8.89;76.98;101581.41;10173886;29;20056;-84
2022/11/02 21:14:59;;;;;;;9.40;1.73;;;;;;;8.69;77.27;101577.16;10164050;29;20060;-85
2022/11/02 21:20:01;;;;;;;1.83;0.68;;;;;;;8.51;77.71;101573.03;10164638;29;20052;-85
2022/11/02 21:25:23;;;;;;;0.70;0.52;;;;;;;8.42;78.22;101567.41;10169309;28;20072;-85
2022/11/02 21:30:25;;;;;;;3.15;1.13;;;;;;;8.31;78.47;101559.19;10174533;29;20056;-85
2022/11/02 21:35:26;;;;;;;1.60;0.88;;;;;;;8.17;78.84;101548.22;10169236;29;20115;-85
2022/11/02 21:40:27;;;;;;;2.40;0.80;;;;;;;8.13;79.26;101559.34;10161922;29;20056;-85
2022/11/02 21:45:29;;;;;;;7.57;0.40;;;;;;;8.21;79.34;101555.34;10170059;29;20482;-85
2022/11/02 21:50:38;;;;;;;4.53;1.17;;;;;;;8.23;79.52;101540.63;10172761;29;20469;-86
2022/11/02 21:55:39;;;;;;;;;;;;;;;8.23;79.68;101538.03;10184983;29;20569;-85
2022/11/02 22:06:01;;;;;;;4.05;0.55;;;;;;;8.25;79.80;101531.13;10169964;29;20508;-85
2022/11/02 22:11:02;;;;;;;1.45;0.38;;;;;;;8.26;79.81;101525.09;10169173;29;20052;-87
2022/11/02 22:16:07;;;;;;;3.28;0.70;;;;;;;8.30;79.76;101523.47;10160404;29;20052;-84
2022/11/02 22:21:10;;;;;;;1.35;0.73;;;;;;;8.28;79.90;101528.63;10169812;29;20115;-85
2022/11/02 22:26:17;;;;;;;1.52;1.40;;;;;;;8.28;79.65;101531.25;10170357;29;20103;-85
2022/11/02 22:31:22;;;;;;;1.65;0.85;;;;;;;8.30;79.75;101507.81;10171985;29;20777;-86
2022/11/02 22:36:25;;;;;;;5.80;0.60;;;;;;;8.24;79.60;101504.97;10177609;29;20048;-84
2022/11/02 22:41:31;;;;;;;3.42;0.98;;;;;;;8.28;79.79;101499.06;10182872;29;20107;-86
2022/11/02 22:46:35;;;;;;;1.15;0.80;;;;;;;8.28;79.81;101484.28;10164711;29;20041;-85
2022/11/02 22:51:39;;;;;;;4.05;1.45;;;;;;;8.25;79.73;101483.28;10167916;29;20418;-86
2022/11/02 22:56:42;;;;;;;3.45;0.98;;;;;;;8.28;79.94;101473.84;10167397;29;20048;-85
2022/11/02 23:01:44;;;;;;;1.25;0.60;;;;;;;8.29;79.85;101469.53;10167696;29;20056;-85
2022/11/02 23:06:45;;;;;;;0.30;0.30;;;;;;;8.30;79.82;101461.75;10167412;29;20064;-85
2022/11/02 23:11:47;;;;;;;3.38;1.25;;;;;;;8.30;79.69;101451.31;10166046;29;20395;-86
2022/11/02 23:16:48;;;;;;;3.17;0.60;;;;;;;8.30;79.93;101446.09;10168450;29;20072;-85
2022/11/02 23:25:09;;;;;;;1.02;0.70;;;;;;;8.31;79.91;101437.41;10182044;29;20131;-84
2022/11/02 23:27:11;;;;;;;1.95;0.68;;;;;;;8.27;79.65;101432.03;10166421;29;20092;-85
2022/11/02 23:32:24;;;;;;;1.35;0.50;;;;;;;8.25;79.94;101421.53;10159658;29;20040;-86
2022/11/02 23:37:26;;;;;;;2.15;1.05;;;;;;;8.24;79.80;101409.34;10160305;29;20076;-85
2022/11/02 23:42:27;;;;;;;1.65;0.68;;;;;;;8.19;80.03;101410.88;10179919;29;20040;-86
2022/11/02 23:58:10;;;;;;;0.63;0.38;;;;;;;8.26;79.88;101397.25;10158154;29;20036;-85
